map of MSU home
Great Circle Mapper logo
MSU - Airport
Location
City:  Maseru, Lesotho
Name:Moshoeshoe International Airport
ICAO / IATA:FXMM / MSU

Details
Type:Airport (Aerodrome, Airfield)
Use:Public/Civil, International (customs port of entry)
Latitude:2927'44"S (-29.462255)
Longitude:2733'09"E (27.552503)
Datum:WGS 1984
Elevation:5348 ft (1630 m)
Variation:23.10W (WMM2015 magnetic declination)
-0.14 annual change
Runways:2
Longest:10498 × 148 ft (3200 × 45 m), paved

Time
Time Zone:UTC+2
Local Time:

Weather
METAR:FXMM 010500Z 00000KT CAVOK 15/12 Q1019 NOSIG
TAF:FXMM 010415Z 0106/0206 00000KT //// //////
BECMG 0106/0108 04008KT 9999 FEW035
FM010800 27015KT //// BKN030 FEW040TCU PROB30
TEMPO 0112/0118 30016KT TSRA BKN030 FEW035CB
FM011800 18012KT //// SCT030
FM020200 00000KT CAVOK

Related Locations
Nearby:
Farthest:LUP: 11799 mi / 18988 km
Kalaupapa, Molokai, HI, US

Find:

   beyond  
but within

Other Information
Maps:
NOTAMs:
Links:
Sources:

  
flag of Lesotho   

Sectional Chart

Flight Planning
at skyvector.com

Satellite Image

Google Maps Satellite View

 

Copyright © 2004-2015 Karl L. Swartz. All rights reserved.
The Great Circle Mapper name and logo are trademarks of the Great Circle Mapper.
All other trademarks mentioned herein belong to their respective owners.
Please see credits for attibutions and further copyright information.

  Follow gcmap on Facebook Follow gcmap on Twitter

hCard Microformat

Geo Microformat